sensor_id;sensor_type;location;lat;lon;timestamp;P1;durP1;ratioP1;P2;durP2;ratioP2
16506;SDS011;8366;51.020;7.642;2024-02-15T00:00:39;2.27;;;1.50;;
16506;SDS011;8366;51.020;7.642;2024-02-15T00:03:08;2.33;;;1.50;;
16506;SDS011;8366;51.020;7.642;2024-02-15T00:05:39;3.53;;;1.40;;
16506;SDS011;8366;51.020;7.642;2024-02-15T00:08:07;3.57;;;1.70;;
16506;SDS011;8366;51.020;7.642;2024-02-15T00:10:34;2.97;;;1.85;;
16506;SDS011;8366;51.020;7.642;2024-02-15T00:13:01;3.80;;;1.80;;
16506;SDS011;8366;51.020;7.642;2024-02-15T00:15:28;1.70;;;1.57;;
16506;SDS011;8366;51.020;7.642;2024-02-15T00:17:55;2.93;;;1.87;;
16506;SDS011;8366;51.020;7.642;2024-02-15T00:20:21;2.83;;;1.60;;
16506;SDS011;8366;51.020;7.642;2024-02-15T00:22:49;4.53;;;1.70;;
16506;SDS011;8366;51.020;7.642;2024-02-15T00:25:17;3.07;;;1.73;;
16506;SDS011;8366;51.020;7.642;2024-02-15T00:27:44;2.03;;;1.70;;
16506;SDS011;8366;51.020;7.642;2024-02-15T00:30:12;5.50;;;2.13;;
16506;SDS011;8366;51.020;7.642;2024-02-15T00:32:39;2.17;;;1.80;;
16506;SDS011;8366;51.020;7.642;2024-02-15T00:35:05;2.40;;;1.90;;
16506;SDS011;8366;51.020;7.642;2024-02-15T00:37:34;2.92;;;2.05;;
16506;SDS011;8366;51.020;7.642;2024-02-15T00:40:02;2.67;;;2.00;;
16506;SDS011;8366;51.020;7.642;2024-02-15T00:42:29;3.27;;;2.07;;
16506;SDS011;8366;51.020;7.642;2024-02-15T00:44:57;4.53;;;2.30;;
16506;SDS011;8366;51.020;7.642;2024-02-15T00:47:23;4.63;;;2.03;;
16506;SDS011;8366;51.020;7.642;2024-02-15T00:49:50;2.73;;;2.20;;
16506;SDS011;8366;51.020;7.642;2024-02-15T00:52:16;2.67;;;2.00;;
16506;SDS011;8366;51.020;7.642;2024-02-15T00:54:43;3.07;;;2.20;;
16506;SDS011;8366;51.020;7.642;2024-02-15T00:57:11;3.97;;;2.20;;
16506;SDS011;8366;51.020;7.642;2024-02-15T00:59:38;2.43;;;2.10;;
16506;SDS011;8366;51.020;7.642;2024-02-15T01:02:04;5.18;;;2.22;;
16506;SDS011;8366;51.020;7.642;2024-02-15T01:04:31;4.80;;;2.20;;
16506;SDS011;8366;51.020;7.642;2024-02-15T01:06:57;3.40;;;2.30;;
16506;SDS011;8366;51.020;7.642;2024-02-15T01:09:24;3.65;;;2.28;;
16506;SDS011;8366;51.020;7.642;2024-02-15T01:11:50;6.03;;;2.35;;
16506;SDS011;8366;51.020;7.642;2024-02-15T01:14:18;2.70;;;2.20;;
16506;SDS011;8366;51.020;7.642;2024-02-15T01:16:45;5.57;;;2.60;;
16506;SDS011;8366;51.020;7.642;2024-02-15T01:19:12;2.67;;;2.27;;
16506;SDS011;8366;51.020;7.642;2024-02-15T01:21:38;4.93;;;2.40;;
16506;SDS011;8366;51.020;7.642;2024-02-15T01:24:05;3.20;;;2.30;;
16506;SDS011;8366;51.020;7.642;2024-02-15T01:26:32;3.60;;;2.23;;
16506;SDS011;8366;51.020;7.642;2024-02-15T01:28:59;2.95;;;2.28;;
16506;SDS011;8366;51.020;7.642;2024-02-15T01:31:29;5.40;;;2.53;;
16506;SDS011;8366;51.020;7.642;2024-02-15T01:33:55;5.90;;;2.67;;
16506;SDS011;8366;51.020;7.642;2024-02-15T01:36:22;5.73;;;2.70;;
16506;SDS011;8366;51.020;7.642;2024-02-15T01:38:49;4.17;;;2.57;;
16506;SDS011;8366;51.020;7.642;2024-02-15T01:41:16;6.10;;;2.60;;
16506;SDS011;8366;51.020;7.642;2024-02-15T01:43:43;4.53;;;2.63;;
16506;SDS011;8366;51.020;7.642;2024-02-15T01:46:09;4.10;;;2.53;;
16506;SDS011;8366;51.020;7.642;2024-02-15T01:48:39;3.23;;;2.50;;
16506;SDS011;8366;51.020;7.642;2024-02-15T01:51:06;3.20;;;2.50;;
16506;SDS011;8366;51.020;7.642;2024-02-15T01:53:33;5.88;;;2.75;;
16506;SDS011;8366;51.020;7.642;2024-02-15T01:56:00;6.17;;;2.73;;
16506;SDS011;8366;51.020;7.642;2024-02-15T01:58:27;8.13;;;2.60;;
16506;SDS011;8366;51.020;7.642;2024-02-15T02:00:57;5.93;;;2.20;;
16506;SDS011;8366;51.020;7.642;2024-02-15T02:03:23;6.22;;;2.42;;
16506;SDS011;8366;51.020;7.642;2024-02-15T02:05:51;3.83;;;2.40;;
16506;SDS011;8366;51.020;7.642;2024-02-15T02:08:18;8.97;;;2.80;;
16506;SDS011;8366;51.020;7.642;2024-02-15T02:10:45;5.43;;;2.67;;
16506;SDS011;8366;51.020;7.642;2024-02-15T02:13:11;4.22;;;2.88;;
16506;SDS011;8366;51.020;7.642;2024-02-15T02:15:38;5.27;;;2.37;;
16506;SDS011;8366;51.020;7.642;2024-02-15T02:18:05;4.93;;;2.50;;
16506;SDS011;8366;51.020;7.642;2024-02-15T02:20:33;3.95;;;2.42;;
16506;SDS011;8366;51.020;7.642;2024-02-15T02:23:03;5.07;;;2.65;;
16506;SDS011;8366;51.020;7.642;2024-02-15T02:25:34;6.00;;;2.88;;
16506;SDS011;8366;51.020;7.642;2024-02-15T02:28:01;3.65;;;2.65;;
16506;SDS011;8366;51.020;7.642;2024-02-15T02:30:28;5.33;;;2.63;;
16506;SDS011;8366;51.020;7.642;2024-02-15T02:32:55;4.55;;;2.55;;
16506;SDS011;8366;51.020;7.642;2024-02-15T02:35:24;5.27;;;2.40;;
16506;SDS011;8366;51.020;7.642;2024-02-15T02:37:50;2.90;;;2.40;;
16506;SDS011;8366;51.020;7.642;2024-02-15T02:40:18;4.07;;;2.85;;
16506;SDS011;8366;51.020;7.642;2024-02-15T02:42:50;4.50;;;2.67;;
16506;SDS011;8366;51.020;7.642;2024-02-15T02:45:18;5.10;;;2.40;;
16506;SDS011;8366;51.020;7.642;2024-02-15T02:47:47;6.17;;;2.77;;
16506;SDS011;8366;51.020;7.642;2024-02-15T02:50:13;4.20;;;2.80;;
16506;SDS011;8366;51.020;7.642;2024-02-15T02:52:40;6.65;;;3.03;;
16506;SDS011;8366;51.020;7.642;2024-02-15T02:55:07;5.13;;;2.90;;
16506;SDS011;8366;51.020;7.642;2024-02-15T02:57:34;6.85;;;2.60;;
16506;SDS011;8366;51.020;7.642;2024-02-15T03:00:04;4.07;;;2.50;;
16506;SDS011;8366;51.020;7.642;2024-02-15T03:02:33;5.37;;;2.63;;
16506;SDS011;8366;51.020;7.642;2024-02-15T03:05:00;6.22;;;2.60;;
16506;SDS011;8366;51.020;7.642;2024-02-15T03:07:28;4.60;;;2.50;;
16506;SDS011;8366;51.020;7.642;2024-02-15T03:09:54;6.00;;;2.70;;
16506;SDS011;8366;51.020;7.642;2024-02-15T03:12:20;6.30;;;2.70;;
16506;SDS011;8366;51.020;7.642;2024-02-15T03:14:47;5.97;;;2.80;;
16506;SDS011;8366;51.020;7.642;2024-02-15T03:17:15;3.50;;;2.33;;
16506;SDS011;8366;51.020;7.642;2024-02-15T03:19:41;3.78;;;2.58;;
16506;SDS011;8366;51.020;7.642;2024-02-15T03:22:08;5.70;;;2.47;;
16506;SDS011;8366;51.020;7.642;2024-02-15T03:24:36;5.47;;;2.80;;
16506;SDS011;8366;51.020;7.642;2024-02-15T03:27:03;6.13;;;3.30;;
16506;SDS011;8366;51.020;7.642;2024-02-15T03:29:30;4.85;;;2.70;;
16506;SDS011;8366;51.020;7.642;2024-02-15T03:31:56;5.30;;;2.92;;
16506;SDS011;8366;51.020;7.642;2024-02-15T03:34:24;4.43;;;2.63;;
16506;SDS011;8366;51.020;7.642;2024-02-15T03:36:51;6.10;;;2.80;;
16506;SDS011;8366;51.020;7.642;2024-02-15T03:39:19;4.43;;;2.55;;
16506;SDS011;8366;51.020;7.642;2024-02-15T03:41:45;4.30;;;2.73;;
16506;SDS011;8366;51.020;7.642;2024-02-15T03:44:12;5.73;;;2.50;;
16506;SDS011;8366;51.020;7.642;2024-02-15T03:46:39;6.23;;;2.67;;
16506;SDS011;8366;51.020;7.642;2024-02-15T03:49:05;3.65;;;2.50;;
16506;SDS011;8366;51.020;7.642;2024-02-15T03:51:34;4.63;;;3.53;;
16506;SDS011;8366;51.020;7.642;2024-02-15T03:54:01;5.22;;;2.70;;
16506;SDS011;8366;51.020;7.642;2024-02-15T03:56:29;5.67;;;3.00;;
16506;SDS011;8366;51.020;7.642;2024-02-15T03:58:57;8.70;;;3.00;;
16506;SDS011;8366;51.020;7.642;2024-02-15T04:01:24;4.07;;;2.67;;
16506;SDS011;8366;51.020;7.642;2024-02-15T04:03:52;5.05;;;2.60;;
16506;SDS011;8366;51.020;7.642;2024-02-15T04:06:18;6.90;;;3.30;;
16506;SDS011;8366;51.020;7.642;2024-02-15T04:08:46;3.63;;;2.77;;
16506;SDS011;8366;51.020;7.642;2024-02-15T04:11:15;6.20;;;2.80;;
16506;SDS011;8366;51.020;7.642;2024-02-15T04:13:42;6.15;;;2.80;;
16506;SDS011;8366;51.020;7.642;2024-02-15T04:16:08;5.80;;;2.60;;
16506;SDS011;8366;51.020;7.642;2024-02-15T04:18:35;5.47;;;2.83;;
16506;SDS011;8366;51.020;7.642;2024-02-15T04:21:03;2.92;;;2.60;;
16506;SDS011;8366;51.020;7.642;2024-02-15T04:23:32;5.57;;;2.60;;
16506;SDS011;8366;51.020;7.642;2024-02-15T04:26:00;3.80;;;2.40;;
16506;SDS011;8366;51.020;7.642;2024-02-15T04:28:27;4.77;;;2.70;;
16506;SDS011;8366;51.020;7.642;2024-02-15T04:30:53;5.20;;;2.90;;
16506;SDS011;8366;51.020;7.642;2024-02-15T04:33:20;6.43;;;2.60;;
16506;SDS011;8366;51.020;7.642;2024-02-15T04:35:47;3.72;;;2.70;;
16506;SDS011;8366;51.020;7.642;2024-02-15T04:38:16;4.33;;;2.97;;
16506;SDS011;8366;51.020;7.642;2024-02-15T04:40:44;5.20;;;2.60;;
16506;SDS011;8366;51.020;7.642;2024-02-15T04:43:12;4.70;;;2.80;;
16506;SDS011;8366;51.020;7.642;2024-02-15T04:45:40;6.37;;;3.07;;
16506;SDS011;8366;51.020;7.642;2024-02-15T04:48:07;5.63;;;3.50;;
16506;SDS011;8366;51.020;7.642;2024-02-15T04:50:34;8.05;;;2.95;;
16506;SDS011;8366;51.020;7.642;2024-02-15T04:53:01;6.90;;;3.17;;
16506;SDS011;8366;51.020;7.642;2024-02-15T04:55:27;5.18;;;2.95;;
16506;SDS011;8366;51.020;7.642;2024-02-15T04:57:56;5.10;;;3.03;;
16506;SDS011;8366;51.020;7.642;2024-02-15T05:00:24;4.50;;;2.97;;
16506;SDS011;8366;51.020;7.642;2024-02-15T05:02:51;4.30;;;3.40;;
16506;SDS011;8366;51.020;7.642;2024-02-15T05:05:18;5.83;;;3.70;;
16506;SDS011;8366;51.020;7.642;2024-02-15T05:07:45;5.13;;;3.30;;
16506;SDS011;8366;51.020;7.642;2024-02-15T05:10:14;5.90;;;3.50;;
16506;SDS011;8366;51.020;7.642;2024-02-15T05:12:41;4.95;;;3.10;;
16506;SDS011;8366;51.020;7.642;2024-02-15T05:15:08;6.60;;;3.30;;
16506;SDS011;8366;51.020;7.642;2024-02-15T05:17:37;6.27;;;3.03;;
16506;SDS011;8366;51.020;7.642;2024-02-15T05:20:06;7.45;;;3.42;;
16506;SDS011;8366;51.020;7.642;2024-02-15T05:22:36;5.20;;;3.40;;
16506;SDS011;8366;51.020;7.642;2024-02-15T05:25:04;6.65;;;3.10;;
16506;SDS011;8366;51.020;7.642;2024-02-15T05:27:31;6.28;;;3.10;;
16506;SDS011;8366;51.020;7.642;2024-02-15T05:29:58;17.05;;;9.60;;
16506;SDS011;8366;51.020;7.642;2024-02-15T05:32:24;10.63;;;4.93;;
16506;SDS011;8366;51.020;7.642;2024-02-15T05:34:53;6.33;;;3.87;;
16506;SDS011;8366;51.020;7.642;2024-02-15T05:37:20;7.27;;;3.77;;
16506;SDS011;8366;51.020;7.642;2024-02-15T05:39:48;6.75;;;4.07;;
16506;SDS011;8366;51.020;7.642;2024-02-15T05:42:17;6.07;;;3.65;;
16506;SDS011;8366;51.020;7.642;2024-02-15T05:44:44;5.35;;;3.70;;
16506;SDS011;8366;51.020;7.642;2024-02-15T05:47:11;6.27;;;4.00;;
16506;SDS011;8366;51.020;7.642;2024-02-15T05:49:37;7.10;;;3.45;;
16506;SDS011;8366;51.020;7.642;2024-02-15T05:52:05;6.60;;;3.67;;
16506;SDS011;8366;51.020;7.642;2024-02-15T05:54:33;5.20;;;3.33;;
16506;SDS011;8366;51.020;7.642;2024-02-15T05:57:00;6.28;;;3.63;;
16506;SDS011;8366;51.020;7.642;2024-02-15T05:59:26;6.25;;;3.47;;
16506;SDS011;8366;51.020;7.642;2024-02-15T06:01:54;5.53;;;3.85;;
16506;SDS011;8366;51.020;7.642;2024-02-15T06:04:20;6.03;;;4.50;;
16506;SDS011;8366;51.020;7.642;2024-02-15T06:06:48;7.20;;;4.63;;
16506;SDS011;8366;51.020;7.642;2024-02-15T06:09:17;8.00;;;4.75;;
16506;SDS011;8366;51.020;7.642;2024-02-15T06:11:48;7.53;;;4.70;;
16506;SDS011;8366;51.020;7.642;2024-02-15T06:14:16;6.10;;;4.72;;
16506;SDS011;8366;51.020;7.642;2024-02-15T06:16:49;5.82;;;4.50;;
16506;SDS011;8366;51.020;7.642;2024-02-15T06:19:16;7.30;;;4.35;;
16506;SDS011;8366;51.020;7.642;2024-02-15T06:21:43;5.50;;;4.20;;
16506;SDS011;8366;51.020;7.642;2024-02-15T06:24:09;6.67;;;4.77;;
16506;SDS011;8366;51.020;7.642;2024-02-15T06:26:37;7.57;;;4.75;;
16506;SDS011;8366;51.020;7.642;2024-02-15T06:29:04;6.73;;;4.97;;
16506;SDS011;8366;51.020;7.642;2024-02-15T06:31:48;6.75;;;5.20;;
16506;SDS011;8366;51.020;7.642;2024-02-15T06:34:32;8.03;;;5.00;;
16506;SDS011;8366;51.020;7.642;2024-02-15T06:40:20;9.50;;;5.37;;
16506;SDS011;8366;51.020;7.642;2024-02-15T06:42:49;10.00;;;5.07;;
16506;SDS011;8366;51.020;7.642;2024-02-15T06:45:15;8.10;;;4.88;;
16506;SDS011;8366;51.020;7.642;2024-02-15T06:47:43;9.50;;;5.13;;
16506;SDS011;8366;51.020;7.642;2024-02-15T06:50:10;8.87;;;5.07;;
16506;SDS011;8366;51.020;7.642;2024-02-15T06:52:36;7.23;;;4.97;;
16506;SDS011;8366;51.020;7.642;2024-02-15T06:55:03;10.40;;;5.30;;
16506;SDS011;8366;51.020;7.642;2024-02-15T06:57:30;9.25;;;4.85;;
16506;SDS011;8366;51.020;7.642;2024-02-15T06:59:58;6.50;;;5.00;;
16506;SDS011;8366;51.020;7.642;2024-02-15T07:02:24;8.00;;;4.85;;
16506;SDS011;8366;51.020;7.642;2024-02-15T07:04:51;7.63;;;4.47;;
16506;SDS011;8366;51.020;7.642;2024-02-15T07:07:20;10.23;;;4.63;;
16506;SDS011;8366;51.020;7.642;2024-02-15T07:09:47;7.40;;;5.13;;
16506;SDS011;8366;51.020;7.642;2024-02-15T07:12:14;9.13;;;5.60;;
16506;SDS011;8366;51.020;7.642;2024-02-15T07:14:40;8.77;;;5.22;;
16506;SDS011;8366;51.020;7.642;2024-02-15T07:17:08;9.15;;;5.93;;
16506;SDS011;8366;51.020;7.642;2024-02-15T07:19:35;8.63;;;6.20;;
16506;SDS011;8366;51.020;7.642;2024-02-15T07:22:03;8.80;;;7.10;;
16506;SDS011;8366;51.020;7.642;2024-02-15T07:24:30;9.47;;;5.50;;
16506;SDS011;8366;51.020;7.642;2024-02-15T07:26:57;7.10;;;4.40;;
16506;SDS011;8366;51.020;7.642;2024-02-15T07:29:23;8.05;;;5.10;;
16506;SDS011;8366;51.020;7.642;2024-02-15T07:31:50;7.15;;;4.63;;
16506;SDS011;8366;51.020;7.642;2024-02-15T07:34:18;9.38;;;4.95;;
16506;SDS011;8366;51.020;7.642;2024-02-15T07:36:44;7.20;;;4.50;;
16506;SDS011;8366;51.020;7.642;2024-02-15T07:39:11;9.93;;;4.40;;
16506;SDS011;8366;51.020;7.642;2024-02-15T07:41:48;10.27;;;4.50;;
16506;SDS011;8366;51.020;7.642;2024-02-15T07:44:15;8.10;;;4.15;;
16506;SDS011;8366;51.020;7.642;2024-02-15T07:46:42;6.23;;;4.60;;
16506;SDS011;8366;51.020;7.642;2024-02-15T07:49:10;9.93;;;4.70;;
16506;SDS011;8366;51.020;7.642;2024-02-15T07:51:38;9.60;;;4.70;;
16506;SDS011;8366;51.020;7.642;2024-02-15T07:54:04;11.23;;;4.72;;
16506;SDS011;8366;51.020;7.642;2024-02-15T07:56:31;8.33;;;4.80;;
16506;SDS011;8366;51.020;7.642;2024-02-15T07:58:57;6.45;;;3.85;;
16506;SDS011;8366;51.020;7.642;2024-02-15T08:01:24;7.55;;;4.07;;
16506;SDS011;8366;51.020;7.642;2024-02-15T08:03:51;8.15;;;4.22;;
16506;SDS011;8366;51.020;7.642;2024-02-15T08:06:18;6.68;;;4.30;;
16506;SDS011;8366;51.020;7.642;2024-02-15T08:08:46;9.15;;;5.65;;
16506;SDS011;8366;51.020;7.642;2024-02-15T08:11:13;9.00;;;5.35;;
16506;SDS011;8366;51.020;7.642;2024-02-15T08:13:43;8.73;;;4.47;;
16506;SDS011;8366;51.020;7.642;2024-02-15T08:16:10;7.53;;;5.03;;
16506;SDS011;8366;51.020;7.642;2024-02-15T08:18:37;7.95;;;5.00;;
16506;SDS011;8366;51.020;7.642;2024-02-15T08:21:05;8.97;;;5.00;;
16506;SDS011;8366;51.020;7.642;2024-02-15T08:23:31;8.95;;;5.20;;
16506;SDS011;8366;51.020;7.642;2024-02-15T08:25:59;10.13;;;5.35;;
16506;SDS011;8366;51.020;7.642;2024-02-15T08:28:26;9.63;;;5.68;;
16506;SDS011;8366;51.020;7.642;2024-02-15T08:30:53;8.48;;;5.25;;
16506;SDS011;8366;51.020;7.642;2024-02-15T08:33:20;7.60;;;5.10;;
16506;SDS011;8366;51.020;7.642;2024-02-15T08:35:48;10.60;;;4.80;;
16506;SDS011;8366;51.020;7.642;2024-02-15T08:38:15;7.50;;;4.30;;
16506;SDS011;8366;51.020;7.642;2024-02-15T08:40:42;7.55;;;4.35;;
16506;SDS011;8366;51.020;7.642;2024-02-15T08:43:12;7.25;;;4.40;;
16506;SDS011;8366;51.020;7.642;2024-02-15T08:45:38;9.75;;;4.93;;
16506;SDS011;8366;51.020;7.642;2024-02-15T08:48:05;6.10;;;3.90;;
16506;SDS011;8366;51.020;7.642;2024-02-15T08:50:32;11.40;;;4.43;;
16506;SDS011;8366;51.020;7.642;2024-02-15T08:52:58;8.52;;;4.28;;
16506;SDS011;8366;51.020;7.642;2024-02-15T08:55:25;7.13;;;3.88;;
16506;SDS011;8366;51.020;7.642;2024-02-15T08:57:53;10.43;;;4.45;;
16506;SDS011;8366;51.020;7.642;2024-02-15T09:00:21;9.68;;;3.70;;
16506;SDS011;8366;51.020;7.642;2024-02-15T09:02:48;6.60;;;3.97;;
16506;SDS011;8366;51.020;7.642;2024-02-15T09:05:15;6.82;;;3.65;;
16506;SDS011;8366;51.020;7.642;2024-02-15T09:07:42;8.02;;;3.70;;
16506;SDS011;8366;51.020;7.642;2024-02-15T09:10:12;9.68;;;3.70;;
16506;SDS011;8366;51.020;7.642;2024-02-15T09:12:40;8.75;;;3.70;;
16506;SDS011;8366;51.020;7.642;2024-02-15T09:15:08;7.50;;;3.20;;
16506;SDS011;8366;51.020;7.642;2024-02-15T09:17:37;4.07;;;3.03;;
16506;SDS011;8366;51.020;7.642;2024-02-15T09:20:06;5.45;;;3.08;;
16506;SDS011;8366;51.020;7.642;2024-02-15T09:22:33;5.05;;;2.63;;
16506;SDS011;8366;51.020;7.642;2024-02-15T09:25:01;5.38;;;2.42;;
16506;SDS011;8366;51.020;7.642;2024-02-15T09:27:27;5.72;;;2.50;;
16506;SDS011;8366;51.020;7.642;2024-02-15T09:29:54;6.15;;;2.20;;
16506;SDS011;8366;51.020;7.642;2024-02-15T09:32:21;8.20;;;3.00;;
16506;SDS011;8366;51.020;7.642;2024-02-15T09:34:49;6.13;;;2.25;;
16506;SDS011;8366;51.020;7.642;2024-02-15T09:37:16;5.53;;;2.42;;
16506;SDS011;8366;51.020;7.642;2024-02-15T09:39:42;3.60;;;2.10;;
16506;SDS011;8366;51.020;7.642;2024-02-15T09:42:09;3.72;;;2.10;;
16506;SDS011;8366;51.020;7.642;2024-02-15T09:44:35;5.32;;;2.13;;
16506;SDS011;8366;51.020;7.642;2024-02-15T09:47:03;5.53;;;2.40;;
16506;SDS011;8366;51.020;7.642;2024-02-15T09:49:33;5.32;;;1.85;;
16506;SDS011;8366;51.020;7.642;2024-02-15T09:52:03;5.50;;;2.30;;
16506;SDS011;8366;51.020;7.642;2024-02-15T09:54:30;6.00;;;2.30;;
16506;SDS011;8366;51.020;7.642;2024-02-15T09:56:58;4.50;;;2.35;;
16506;SDS011;8366;51.020;7.642;2024-02-15T09:59:27;4.70;;;1.85;;
16506;SDS011;8366;51.020;7.642;2024-02-15T10:01:53;5.43;;;2.30;;
16506;SDS011;8366;51.020;7.642;2024-02-15T10:04:23;4.30;;;2.30;;
16506;SDS011;8366;51.020;7.642;2024-02-15T10:06:50;5.30;;;2.10;;
16506;SDS011;8366;51.020;7.642;2024-02-15T10:09:24;5.72;;;2.08;;
16506;SDS011;8366;51.020;7.642;2024-02-15T10:11:54;5.20;;;1.83;;
16506;SDS011;8366;51.020;7.642;2024-02-15T10:14:22;2.90;;;1.55;;
16506;SDS011;8366;51.020;7.642;2024-02-15T10:16:49;3.85;;;1.52;;
16506;SDS011;8366;51.020;7.642;2024-02-15T10:19:16;6.15;;;1.88;;
16506;SDS011;8366;51.020;7.642;2024-02-15T10:21:43;4.57;;;1.65;;
16506;SDS011;8366;51.020;7.642;2024-02-15T10:24:10;5.78;;;1.90;;
16506;SDS011;8366;51.020;7.642;2024-02-15T10:26:38;6.53;;;2.10;;
16506;SDS011;8366;51.020;7.642;2024-02-15T10:29:05;5.70;;;2.67;;
16506;SDS011;8366;51.020;7.642;2024-02-15T10:31:33;11.93;;;3.55;;
16506;SDS011;8366;51.020;7.642;2024-02-15T10:34:02;6.32;;;2.33;;
16506;SDS011;8366;51.020;7.642;2024-02-15T10:36:31;6.15;;;2.17;;
16506;SDS011;8366;51.020;7.642;2024-02-15T10:41:49;8.32;;;2.80;;
16506;SDS011;8366;51.020;7.642;2024-02-15T10:44:18;7.50;;;3.15;;
16506;SDS011;8366;51.020;7.642;2024-02-15T10:46:46;7.38;;;3.00;;
16506;SDS011;8366;51.020;7.642;2024-02-15T10:49:16;4.45;;;2.08;;
16506;SDS011;8366;51.020;7.642;2024-02-15T10:51:43;4.15;;;2.60;;
16506;SDS011;8366;51.020;7.642;2024-02-15T10:54:12;5.03;;;1.73;;
16506;SDS011;8366;51.020;7.642;2024-02-15T10:56:42;5.88;;;1.90;;
16506;SDS011;8366;51.020;7.642;2024-02-15T10:59:18;4.65;;;1.70;;
16506;SDS011;8366;51.020;7.642;2024-02-15T11:01:46;3.88;;;1.55;;
16506;SDS011;8366;51.020;7.642;2024-02-15T11:04:15;4.25;;;1.60;;
16506;SDS011;8366;51.020;7.642;2024-02-15T11:06:46;5.15;;;1.73;;
16506;SDS011;8366;51.020;7.642;2024-02-15T11:09:15;4.45;;;1.70;;
16506;SDS011;8366;51.020;7.642;2024-02-15T11:11:42;4.03;;;1.83;;
16506;SDS011;8366;51.020;7.642;2024-02-15T11:14:29;6.50;;;1.60;;
16506;SDS011;8366;51.020;7.642;2024-02-15T11:16:57;3.95;;;1.50;;
16506;SDS011;8366;51.020;7.642;2024-02-15T11:19:42;4.18;;;1.55;;
16506;SDS011;8366;51.020;7.642;2024-02-15T11:22:11;4.53;;;1.90;;
16506;SDS011;8366;51.020;7.642;2024-02-15T11:24:45;4.20;;;1.55;;
16506;SDS011;8366;51.020;7.642;2024-02-15T11:27:12;3.60;;;1.50;;
16506;SDS011;8366;51.020;7.642;2024-02-15T11:29:51;4.18;;;1.60;;
16506;SDS011;8366;51.020;7.642;2024-02-15T11:32:36;3.50;;;1.70;;
16506;SDS011;8366;51.020;7.642;2024-02-15T11:35:04;5.07;;;1.52;;
16506;SDS011;8366;51.020;7.642;2024-02-15T11:40:28;3.70;;;1.63;;
16506;SDS011;8366;51.020;7.642;2024-02-15T11:42:55;7.35;;;1.67;;
16506;SDS011;8366;51.020;7.642;2024-02-15T11:45:25;2.95;;;1.60;;
16506;SDS011;8366;51.020;7.642;2024-02-15T11:47:57;3.95;;;1.40;;
16506;SDS011;8366;51.020;7.642;2024-02-15T11:50:27;3.70;;;1.40;;
16506;SDS011;8366;51.020;7.642;2024-02-15T11:53:01;3.65;;;1.60;;
16506;SDS011;8366;51.020;7.642;2024-02-15T11:55:30;3.60;;;1.58;;
16506;SDS011;8366;51.020;7.642;2024-02-15T11:57:57;3.72;;;1.70;;
16506;SDS011;8366;51.020;7.642;2024-02-15T12:00:31;4.82;;;1.75;;
16506;SDS011;8366;51.020;7.642;2024-02-15T12:03:15;2.30;;;1.20;;
16506;SDS011;8366;51.020;7.642;2024-02-15T12:06:11;3.47;;;1.40;;
16506;SDS011;8366;51.020;7.642;2024-02-15T12:08:55;2.35;;;1.52;;
16506;SDS011;8366;51.020;7.642;2024-02-15T12:11:40;4.65;;;1.75;;
16506;SDS011;8366;51.020;7.642;2024-02-15T12:14:25;4.78;;;1.70;;
16506;SDS011;8366;51.020;7.642;2024-02-15T12:17:13;4.10;;;1.60;;
16506;SDS011;8366;51.020;7.642;2024-02-15T12:19:57;3.92;;;1.70;;
16506;SDS011;8366;51.020;7.642;2024-02-15T12:22:26;3.15;;;1.30;;
16506;SDS011;8366;51.020;7.642;2024-02-15T12:24:58;4.00;;;1.70;;
16506;SDS011;8366;51.020;7.642;2024-02-15T12:27:26;3.80;;;1.40;;
16506;SDS011;8366;51.020;7.642;2024-02-15T12:29:53;3.42;;;1.80;;
16506;SDS011;8366;51.020;7.642;2024-02-15T12:32:21;2.88;;;1.38;;
16506;SDS011;8366;51.020;7.642;2024-02-15T12:34:49;4.00;;;1.58;;
16506;SDS011;8366;51.020;7.642;2024-02-15T12:37:17;5.57;;;1.50;;
16506;SDS011;8366;51.020;7.642;2024-02-15T12:39:46;4.10;;;1.50;;
16506;SDS011;8366;51.020;7.642;2024-02-15T12:42:13;2.28;;;1.50;;
16506;SDS011;8366;51.020;7.642;2024-02-15T12:44:42;3.80;;;1.85;;
16506;SDS011;8366;51.020;7.642;2024-02-15T12:47:17;4.20;;;1.58;;
16506;SDS011;8366;51.020;7.642;2024-02-15T12:49:45;4.05;;;2.22;;
16506;SDS011;8366;51.020;7.642;2024-02-15T12:55:12;3.17;;;1.92;;
16506;SDS011;8366;51.020;7.642;2024-02-15T12:57:40;4.60;;;1.90;;
16506;SDS011;8366;51.020;7.642;2024-02-15T13:00:10;3.70;;;1.80;;
16506;SDS011;8366;51.020;7.642;2024-02-15T13:02:39;3.60;;;1.45;;
16506;SDS011;8366;51.020;7.642;2024-02-15T13:05:08;4.75;;;1.42;;
16506;SDS011;8366;51.020;7.642;2024-02-15T13:07:35;4.95;;;1.58;;
16506;SDS011;8366;51.020;7.642;2024-02-15T13:10:02;3.22;;;1.35;;
16506;SDS011;8366;51.020;7.642;2024-02-15T13:12:31;3.80;;;1.35;;
16506;SDS011;8366;51.020;7.642;2024-02-15T13:14:59;6.07;;;1.70;;
16506;SDS011;8366;51.020;7.642;2024-02-15T13:17:28;2.95;;;1.52;;
16506;SDS011;8366;51.020;7.642;2024-02-15T13:19:54;3.17;;;1.65;;
16506;SDS011;8366;51.020;7.642;2024-02-15T13:22:29;3.95;;;1.50;;
16506;SDS011;8366;51.020;7.642;2024-02-15T13:24:56;3.60;;;1.42;;
16506;SDS011;8366;51.020;7.642;2024-02-15T13:27:22;3.15;;;1.60;;
16506;SDS011;8366;51.020;7.642;2024-02-15T13:29:49;3.28;;;1.73;;
16506;SDS011;8366;51.020;7.642;2024-02-15T13:32:16;2.95;;;1.35;;
16506;SDS011;8366;51.020;7.642;2024-02-15T13:34:46;4.13;;;1.65;;
16506;SDS011;8366;51.020;7.642;2024-02-15T13:37:16;5.53;;;1.50;;
16506;SDS011;8366;51.020;7.642;2024-02-15T13:39:44;3.13;;;1.55;;
16506;SDS011;8366;51.020;7.642;2024-02-15T13:42:11;3.20;;;1.25;;
16506;SDS011;8366;51.020;7.642;2024-02-15T13:44:37;3.75;;;1.50;;
16506;SDS011;8366;51.020;7.642;2024-02-15T13:47:04;3.30;;;1.42;;
16506;SDS011;8366;51.020;7.642;2024-02-15T13:49:30;3.17;;;1.30;;
16506;SDS011;8366;51.020;7.642;2024-02-15T13:51:59;2.83;;;1.42;;
16506;SDS011;8366;51.020;7.642;2024-02-15T13:54:27;4.18;;;1.52;;
16506;SDS011;8366;51.020;7.642;2024-02-15T13:56:55;3.55;;;1.80;;
16506;SDS011;8366;51.020;7.642;2024-02-15T13:59:22;3.25;;;1.33;;
16506;SDS011;8366;51.020;7.642;2024-02-15T14:01:49;3.75;;;1.40;;
16506;SDS011;8366;51.020;7.642;2024-02-15T14:04:15;2.75;;;1.40;;
16506;SDS011;8366;51.020;7.642;2024-02-15T14:06:42;4.63;;;1.50;;
16506;SDS011;8366;51.020;7.642;2024-02-15T14:09:09;3.28;;;1.33;;
16506;SDS011;8366;51.020;7.642;2024-02-15T14:11:36;3.47;;;1.20;;
16506;SDS011;8366;51.020;7.642;2024-02-15T14:14:05;2.95;;;1.50;;
16506;SDS011;8366;51.020;7.642;2024-02-15T14:16:31;4.28;;;1.98;;
16506;SDS011;8366;51.020;7.642;2024-02-15T14:18:58;3.45;;;1.40;;
16506;SDS011;8366;51.020;7.642;2024-02-15T14:21:25;3.33;;;1.40;;
16506;SDS011;8366;51.020;7.642;2024-02-15T14:23:51;4.22;;;1.20;;
16506;SDS011;8366;51.020;7.642;2024-02-15T14:26:18;3.40;;;1.27;;
16506;SDS011;8366;51.020;7.642;2024-02-15T14:28:47;3.50;;;1.48;;
16506;SDS011;8366;51.020;7.642;2024-02-15T14:31:17;1.85;;;1.10;;
16506;SDS011;8366;51.020;7.642;2024-02-15T14:34:01;3.90;;;1.65;;
16506;SDS011;8366;51.020;7.642;2024-02-15T14:36:27;3.95;;;1.40;;
16506;SDS011;8366;51.020;7.642;2024-02-15T14:38:54;2.63;;;1.30;;
16506;SDS011;8366;51.020;7.642;2024-02-15T14:41:21;3.17;;;1.10;;
16506;SDS011;8366;51.020;7.642;2024-02-15T14:43:48;2.47;;;1.20;;
16506;SDS011;8366;51.020;7.642;2024-02-15T14:46:21;4.43;;;1.40;;
16506;SDS011;8366;51.020;7.642;2024-02-15T14:48:46;4.13;;;1.30;;
16506;SDS011;8366;51.020;7.642;2024-02-15T14:51:14;4.05;;;1.35;;
16506;SDS011;8366;51.020;7.642;2024-02-15T14:53:42;4.15;;;1.45;;
16506;SDS011;8366;51.020;7.642;2024-02-15T14:56:09;2.75;;;1.38;;
16506;SDS011;8366;51.020;7.642;2024-02-15T14:58:35;3.28;;;1.38;;
16506;SDS011;8366;51.020;7.642;2024-02-15T15:01:03;3.20;;;1.40;;
16506;SDS011;8366;51.020;7.642;2024-02-15T15:03:31;3.03;;;1.27;;
16506;SDS011;8366;51.020;7.642;2024-02-15T15:05:58;2.30;;;1.13;;
16506;SDS011;8366;51.020;7.642;2024-02-15T15:08:51;3.50;;;1.35;;
16506;SDS011;8366;51.020;7.642;2024-02-15T15:11:35;4.03;;;1.73;;
16506;SDS011;8366;51.020;7.642;2024-02-15T15:14:19;3.83;;;1.90;;
16506;SDS011;8366;51.020;7.642;2024-02-15T15:16:45;3.25;;;1.58;;
16506;SDS011;8366;51.020;7.642;2024-02-15T15:19:14;3.38;;;1.75;;